sensor_id;sensor_type;location;lat;lon;timestamp;pressure;altitude;pressure_sealevel;temperature;humidity
52319;BME280;38258;51.148;14.068;2023-01-31T00:00:43;98117.63;;;0.47;100.00
52319;BME280;38258;51.148;14.068;2023-01-31T00:03:10;98141.75;;;0.61;100.00
52319;BME280;38258;51.148;14.068;2023-01-31T00:05:36;98130.56;;;0.58;100.00
52319;BME280;38258;51.148;14.068;2023-01-31T00:08:03;98134.00;;;0.58;100.00
52319;BME280;38258;51.148;14.068;2023-01-31T00:10:29;98137.50;;;0.65;100.00
52319;BME280;38258;51.148;14.068;2023-01-31T00:12:57;98128.78;;;0.52;100.00
52319;BME280;38258;51.148;14.068;2023-01-31T00:15:24;98151.97;;;0.53;100.00
52319;BME280;38258;51.148;14.068;2023-01-31T00:17:50;98150.28;;;0.59;100.00
52319;BME280;38258;51.148;14.068;2023-01-31T00:20:17;98158.81;;;0.53;100.00
52319;BME280;38258;51.148;14.068;2023-01-31T00:22:43;98146.84;;;0.53;100.00
52319;BME280;38258;51.148;14.068;2023-01-31T00:25:10;98165.63;;;0.45;100.00
52319;BME280;38258;51.148;14.068;2023-01-31T00:27:36;98130.38;;;0.34;100.00
52319;BME280;38258;51.148;14.068;2023-01-31T00:30:05;98157.75;;;0.27;100.00
52319;BME280;38258;51.148;14.068;2023-01-31T00:32:32;98156.94;;;0.32;100.00
52319;BME280;38258;51.148;14.068;2023-01-31T00:34:58;98157.72;;;0.26;100.00
52319;BME280;38258;51.148;14.068;2023-01-31T00:37:25;98158.50;;;0.17;100.00
52319;BME280;38258;51.148;14.068;2023-01-31T00:39:51;98154.25;;;0.21;100.00
52319;BME280;38258;51.148;14.068;2023-01-31T00:42:18;98117.94;;;-0.13;100.00
52319;BME280;38258;51.148;14.068;2023-01-31T00:44:44;98159.38;;;0.15;100.00
52319;BME280;38258;51.148;14.068;2023-01-31T00:47:12;98151.53;;;0.07;100.00
52319;BME280;38258;51.148;14.068;2023-01-31T00:49:39;98160.19;;;0.12;100.00
52319;BME280;38258;51.148;14.068;2023-01-31T00:52:05;98168.81;;;0.20;100.00
52319;BME280;38258;51.148;14.068;2023-01-31T00:54:32;98173.94;;;0.16;100.00
52319;BME280;38258;51.148;14.068;2023-01-31T00:56:58;98157.47;;;-0.02;100.00
52319;BME280;38258;51.148;14.068;2023-01-31T00:59:24;98173.03;;;0.12;100.00
52319;BME280;38258;51.148;14.068;2023-01-31T01:01:51;98162.66;;;0.01;100.00
52319;BME280;38258;51.148;14.068;2023-01-31T01:04:19;98167.09;;;0.19;100.00
52319;BME280;38258;51.148;14.068;2023-01-31T01:06:45;98181.59;;;0.12;100.00
52319;BME280;38258;51.148;14.068;2023-01-31T01:09:16;98189.34;;;0.14;100.00
52319;BME280;38258;51.148;14.068;2023-01-31T01:11:42;98199.75;;;0.23;100.00
52319;BME280;38258;51.148;14.068;2023-01-31T01:14:09;98201.38;;;0.18;100.00
52319;BME280;38258;51.148;14.068;2023-01-31T01:16:37;98199.00;;;0.38;100.00
52319;BME280;38258;51.148;14.068;2023-01-31T01:19:06;98210.19;;;0.39;100.00
52319;BME280;38258;51.148;14.068;2023-01-31T01:21:34;98195.53;;;0.32;100.00
52319;BME280;38258;51.148;14.068;2023-01-31T01:24:04;98211.88;;;0.37;100.00
52319;BME280;38258;51.148;14.068;2023-01-31T01:26:32;98229.03;;;0.36;100.00
52319;BME280;38258;51.148;14.068;2023-01-31T01:29:00;98204.88;;;0.25;100.00
52319;BME280;38258;51.148;14.068;2023-01-31T01:31:30;98206.69;;;0.32;100.00
52319;BME280;38258;51.148;14.068;2023-01-31T01:33:57;98230.72;;;0.36;100.00
52319;BME280;38258;51.148;14.068;2023-01-31T01:36:25;98228.94;;;0.28;100.00
52319;BME280;38258;51.148;14.068;2023-01-31T01:38:54;98236.63;;;0.27;100.00
52319;BME280;38258;51.148;14.068;2023-01-31T01:41:22;98238.50;;;0.39;100.00
52319;BME280;38258;51.148;14.068;2023-01-31T01:43:51;98243.59;;;0.34;100.00
52319;BME280;38258;51.148;14.068;2023-01-31T01:46:22;98248.69;;;0.30;100.00
52319;BME280;38258;51.148;14.068;2023-01-31T01:48:54;98229.81;;;0.31;100.00
52319;BME280;38258;51.148;14.068;2023-01-31T01:51:23;98238.34;;;0.25;100.00
52319;BME280;38258;51.148;14.068;2023-01-31T01:53:55;98227.97;;;0.16;100.00
52319;BME280;38258;51.148;14.068;2023-01-31T01:56:26;98245.94;;;0.14;100.00
52319;BME280;38258;51.148;14.068;2023-01-31T01:58:58;98267.47;;;0.22;100.00
52319;BME280;38258;51.148;14.068;2023-01-31T02:01:29;98262.13;;;0.07;100.00
52319;BME280;38258;51.148;14.068;2023-01-31T02:03:57;98273.31;;;0.10;100.00
52319;BME280;38258;51.148;14.068;2023-01-31T02:06:24;98246.59;;;-0.06;100.00
52319;BME280;38258;51.148;14.068;2023-01-31T02:08:51;98251.75;;;-0.01;100.00
52319;BME280;38258;51.148;14.068;2023-01-31T02:11:22;98262.94;;;0.03;100.00
52319;BME280;38258;51.148;14.068;2023-01-31T02:13:51;98250.91;;;-0.02;100.00
52319;BME280;38258;51.148;14.068;2023-01-31T02:16:18;98262.91;;;-0.01;100.00
52319;BME280;38258;51.148;14.068;2023-01-31T02:18:46;98241.28;;;-0.18;100.00
52319;BME280;38258;51.148;14.068;2023-01-31T02:21:43;98281.78;;;0.02;100.00
52319;BME280;38258;51.148;14.068;2023-01-31T02:31:22;98285.25;;;0.04;100.00
52319;BME280;38258;51.148;14.068;2023-01-31T02:33:56;98298.94;;;0.03;100.00
52319;BME280;38258;51.148;14.068;2023-01-31T02:36:36;98294.75;;;0.08;100.00
52319;BME280;38258;51.148;14.068;2023-01-31T02:39:14;98242.84;;;-0.30;100.00
52319;BME280;38258;51.148;14.068;2023-01-31T02:41:49;98258.34;;;-0.23;100.00
52319;BME280;38258;51.148;14.068;2023-01-31T02:44:23;98308.31;;;-0.01;100.00
52319;BME280;38258;51.148;14.068;2023-01-31T02:47:18;98312.63;;;-0.02;100.00
52319;BME280;38258;51.148;14.068;2023-01-31T02:49:54;98309.22;;;-0.01;100.00
52319;BME280;38258;51.148;14.068;2023-01-31T02:52:27;98310.06;;;-0.02;100.00
52319;BME280;38258;51.148;14.068;2023-01-31T02:55:06;98320.44;;;0.06;100.00
52319;BME280;38258;51.148;14.068;2023-01-31T02:57:55;98305.69;;;-0.07;100.00
52319;BME280;38258;51.148;14.068;2023-01-31T03:00:23;98295.38;;;-0.10;100.00
52319;BME280;38258;51.148;14.068;2023-01-31T03:02:50;98292.88;;;-0.06;100.00
52319;BME280;38258;51.148;14.068;2023-01-31T03:05:19;98340.28;;;0.17;100.00
52319;BME280;38258;51.148;14.068;2023-01-31T03:07:47;98344.63;;;0.21;100.00
52319;BME280;38258;51.148;14.068;2023-01-31T03:10:26;98336.97;;;0.25;100.00
52319;BME280;38258;51.148;14.068;2023-01-31T03:13:04;98337.81;;;0.26;100.00
52319;BME280;38258;51.148;14.068;2023-01-31T03:15:41;98330.75;;;0.09;100.00
52319;BME280;38258;51.148;14.068;2023-01-31T03:18:36;98349.94;;;0.36;100.00
52319;BME280;38258;51.148;14.068;2023-01-31T03:21:09;98367.94;;;0.35;100.00
52319;BME280;38258;51.148;14.068;2023-01-31T03:23:40;98382.66;;;0.45;100.00
52319;BME280;38258;51.148;14.068;2023-01-31T03:26:09;98387.81;;;0.47;100.00
52319;BME280;38258;51.148;14.068;2023-01-31T03:28:37;98367.06;;;0.33;100.00
52319;BME280;38258;51.148;14.068;2023-01-31T03:31:09;98363.69;;;0.38;100.00
52319;BME280;38258;51.148;14.068;2023-01-31T03:33:41;98367.09;;;0.34;100.00
52319;BME280;38258;51.148;14.068;2023-01-31T03:36:20;98387.81;;;0.48;100.00
52319;BME280;38258;51.148;14.068;2023-01-31T03:39:00;98382.50;;;0.31;100.00
52319;BME280;38258;51.148;14.068;2023-01-31T03:41:33;98385.16;;;0.39;100.00
52319;BME280;38258;51.148;14.068;2023-01-31T03:44:08;98384.22;;;0.34;100.00
52319;BME280;38258;51.148;14.068;2023-01-31T03:46:40;98386.88;;;0.40;100.00
52319;BME280;38258;51.148;14.068;2023-01-31T03:49:10;98382.53;;;0.36;100.00
52319;BME280;38258;51.148;14.068;2023-01-31T03:51:44;98391.19;;;0.41;100.00
52319;BME280;38258;51.148;14.068;2023-01-31T03:54:16;98354.84;;;0.15;100.00
52319;BME280;38258;51.148;14.068;2023-01-31T03:56:46;98403.19;;;0.39;100.00
52319;BME280;38258;51.148;14.068;2023-01-31T03:59:19;98406.53;;;0.35;100.00
52319;BME280;38258;51.148;14.068;2023-01-31T04:01:50;98404.81;;;0.34;100.00
52319;BME280;38258;51.148;14.068;2023-01-31T04:04:28;98407.44;;;0.37;100.00
52319;BME280;38258;51.148;14.068;2023-01-31T04:06:58;98408.16;;;0.28;100.00
52319;BME280;38258;51.148;14.068;2023-01-31T04:09:25;98414.19;;;0.28;100.00
52319;BME280;38258;51.148;14.068;2023-01-31T04:11:52;98413.41;;;0.36;100.00
52319;BME280;38258;51.148;14.068;2023-01-31T04:14:19;98417.72;;;0.37;100.00
52319;BME280;38258;51.148;14.068;2023-01-31T04:16:46;98379.72;;;0.17;100.00
52319;BME280;38258;51.148;14.068;2023-01-31T04:19:12;98416.81;;;0.35;100.00
52319;BME280;38258;51.148;14.068;2023-01-31T04:21:39;98424.56;;;0.36;100.00
52319;BME280;38258;51.148;14.068;2023-01-31T04:24:07;98416.75;;;0.28;100.00
52319;BME280;38258;51.148;14.068;2023-01-31T04:26:34;98381.34;;;0.10;100.00
52319;BME280;38258;51.148;14.068;2023-01-31T04:29:01;98423.72;;;0.37;100.00
52319;BME280;38258;51.148;14.068;2023-01-31T04:31:28;98422.88;;;0.37;100.00
52319;BME280;38258;51.148;14.068;2023-01-31T04:33:55;98425.38;;;0.32;100.00
52319;BME280;38258;51.148;14.068;2023-01-31T04:36:22;98432.19;;;0.28;100.00
52319;BME280;38258;51.148;14.068;2023-01-31T04:38:48;98391.47;;;-0.02;100.00
52319;BME280;38258;51.148;14.068;2023-01-31T04:41:16;98433.00;;;0.24;100.00
52319;BME280;38258;51.148;14.068;2023-01-31T04:43:43;98466.63;;;0.38;100.00
52319;BME280;38258;51.148;14.068;2023-01-31T04:46:09;98458.81;;;0.31;100.00
52319;BME280;38258;51.148;14.068;2023-01-31T04:48:36;98469.94;;;0.30;100.00
52319;BME280;38258;51.148;14.068;2023-01-31T04:51:03;98475.03;;;0.26;100.00
52319;BME280;38258;51.148;14.068;2023-01-31T04:53:30;98458.72;;;0.24;100.00
52319;BME280;38258;51.148;14.068;2023-01-31T04:55:56;98467.28;;;0.23;100.00
52319;BME280;38258;51.148;14.068;2023-01-31T04:58:24;98467.28;;;0.23;100.00
52319;BME280;38258;51.148;14.068;2023-01-31T05:00:52;98478.34;;;0.19;100.00
52319;BME280;38258;51.148;14.068;2023-01-31T05:03:19;98370.34;;;-0.41;100.00
52319;BME280;38258;51.148;14.068;2023-01-31T05:05:46;98278.72;;;-0.97;100.00
52319;BME280;38258;51.148;14.068;2023-01-31T05:08:13;98348.53;;;-0.66;100.00
52319;BME280;38258;51.148;14.068;2023-01-31T05:10:40;98432.22;;;-0.29;100.00
52319;BME280;38258;51.148;14.068;2023-01-31T05:13:09;98409.66;;;-0.47;100.00
52319;BME280;38258;51.148;14.068;2023-01-31T05:15:38;98448.31;;;-0.39;100.00
52319;BME280;38258;51.148;14.068;2023-01-31T05:18:05;98482.63;;;-0.37;100.00
52319;BME280;38258;51.148;14.068;2023-01-31T05:20:35;98447.13;;;-0.60;100.00
52319;BME280;38258;51.148;14.068;2023-01-31T05:23:04;98450.50;;;-0.64;100.00
52319;BME280;38258;51.148;14.068;2023-01-31T05:25:31;98475.66;;;-0.44;100.00
52319;BME280;38258;51.148;14.068;2023-01-31T05:27:58;98436.69;;;-0.69;100.00
52319;BME280;38258;51.148;14.068;2023-01-31T05:30:25;98463.47;;;-0.56;100.00
52319;BME280;38258;51.148;14.068;2023-01-31T05:32:53;98469.81;;;-0.35;100.00
52319;BME280;38258;51.148;14.068;2023-01-31T05:35:20;98476.59;;;-0.39;100.00
52319;BME280;38258;51.148;14.068;2023-01-31T05:37:46;98423.75;;;-0.74;100.00
52319;BME280;38258;51.148;14.068;2023-01-31T05:40:14;98425.69;;;-0.62;100.00
52319;BME280;38258;51.148;14.068;2023-01-31T05:42:42;98401.53;;;-0.73;100.00
52319;BME280;38258;51.148;14.068;2023-01-31T05:45:10;98471.06;;;-0.11;100.00
52319;BME280;38258;51.148;14.068;2023-01-31T05:47:37;98403.47;;;-0.60;100.00
52319;BME280;38258;51.148;14.068;2023-01-31T05:50:06;98397.66;;;-0.48;100.00
52319;BME280;38258;51.148;14.068;2023-01-31T05:52:32;98464.19;;;-0.11;100.00
52319;BME280;38258;51.148;14.068;2023-01-31T05:54:59;98426.31;;;-0.23;100.00
52319;BME280;38258;51.148;14.068;2023-01-31T05:57:26;98451.44;;;-0.05;100.00
52319;BME280;38258;51.148;14.068;2023-01-31T05:59:53;98326.81;;;-0.86;100.00
52319;BME280;38258;51.148;14.068;2023-01-31T06:02:19;98361.53;;;-0.57;100.00
52319;BME280;38258;51.148;14.068;2023-01-31T06:04:48;98403.97;;;-0.27;100.00
52319;BME280;38258;51.148;14.068;2023-01-31T06:07:16;98468.78;;;0.09;100.00
52319;BME280;38258;51.148;14.068;2023-01-31T06:09:43;98375.34;;;-0.49;100.00
52319;BME280;38258;51.148;14.068;2023-01-31T06:12:11;98280.47;;;-0.93;100.00
52319;BME280;38258;51.148;14.068;2023-01-31T06:14:39;98478.31;;;0.15;100.00
52319;BME280;38258;51.148;14.068;2023-01-31T06:17:05;98439.47;;;-0.03;100.00
52319;BME280;38258;51.148;14.068;2023-01-31T06:19:32;98489.50;;;0.18;100.00
52319;BME280;38258;51.148;14.068;2023-01-31T06:22:03;98357.28;;;-0.53;100.00
52319;BME280;38258;51.148;14.068;2023-01-31T06:24:31;98499.81;;;0.20;100.00
52319;BME280;38258;51.148;14.068;2023-01-31T06:27:00;98480.03;;;0.16;100.00
52319;BME280;38258;51.148;14.068;2023-01-31T06:29:26;98378.63;;;-0.59;100.00
52319;BME280;38258;51.148;14.068;2023-01-31T06:31:53;98358.06;;;-0.61;100.00
52319;BME280;38258;51.148;14.068;2023-01-31T06:34:20;98437.47;;;-0.21;100.00
52319;BME280;38258;51.148;14.068;2023-01-31T06:36:49;98355.38;;;-0.68;100.00
52319;BME280;38258;51.148;14.068;2023-01-31T06:39:15;98478.97;;;0.01;100.00
52319;BME280;38258;51.148;14.068;2023-01-31T06:41:43;98318.13;;;-0.95;100.00
52319;BME280;38258;51.148;14.068;2023-01-31T06:44:10;98312.72;;;-1.09;100.00
52319;BME280;38258;51.148;14.068;2023-01-31T06:46:37;98509.91;;;0.07;100.00
52319;BME280;38258;51.148;14.068;2023-01-31T06:49:04;98347.19;;;-0.96;100.00
52319;BME280;38258;51.148;14.068;2023-01-31T06:51:30;98506.50;;;0.08;100.00
52319;BME280;38258;51.148;14.068;2023-01-31T06:53:57;98398.28;;;-0.63;100.00
52319;BME280;38258;51.148;14.068;2023-01-31T06:56:24;98404.16;;;-0.68;100.00
52319;BME280;38258;51.148;14.068;2023-01-31T06:58:52;98502.00;;;-0.07;100.00
52319;BME280;38258;51.148;14.068;2023-01-31T07:01:18;98307.38;;;-1.23;100.00
52319;BME280;38258;51.148;14.068;2023-01-31T07:03:46;98330.66;;;-1.14;100.00
52319;BME280;38258;51.148;14.068;2023-01-31T07:06:13;98424.06;;;-0.57;100.00
52319;BME280;38258;51.148;14.068;2023-01-31T07:08:42;98422.28;;;-0.59;100.00
52319;BME280;38258;51.148;14.068;2023-01-31T07:11:09;98464.63;;;-0.38;100.00
52319;BME280;38258;51.148;14.068;2023-01-31T07:13:36;98520.13;;;0.01;100.00
52319;BME280;38258;51.148;14.068;2023-01-31T07:16:04;98441.38;;;-0.45;100.00
52319;BME280;38258;51.148;14.068;2023-01-31T07:18:31;98495.88;;;-0.12;100.00
52319;BME280;38258;51.148;14.068;2023-01-31T07:20:58;98457.97;;;-0.27;100.00
52319;BME280;38258;51.148;14.068;2023-01-31T07:23:24;98434.47;;;-0.49;100.00
52319;BME280;38258;51.148;14.068;2023-01-31T07:25:51;98382.56;;;-0.80;100.00
52319;BME280;38258;51.148;14.068;2023-01-31T07:28:33;98354.06;;;-0.94;100.00
52319;BME280;38258;51.148;14.068;2023-01-31T07:31:05;98444.81;;;-0.44;100.00
52319;BME280;38258;51.148;14.068;2023-01-31T07:33:47;98434.59;;;-0.43;100.00
52319;BME280;38258;51.148;14.068;2023-01-31T07:36:19;98508.16;;;0.03;100.00
52319;BME280;38258;51.148;14.068;2023-01-31T07:38:52;98477.88;;;-0.13;100.00
52319;BME280;38258;51.148;14.068;2023-01-31T07:41:19;98497.03;;;0.06;100.00
52319;BME280;38258;51.148;14.068;2023-01-31T07:43:45;98429.59;;;-0.30;100.00
52319;BME280;38258;51.148;14.068;2023-01-31T07:46:14;98375.00;;;-0.72;100.00
52319;BME280;38258;51.148;14.068;2023-01-31T07:48:41;98395.63;;;-0.66;100.00
52319;BME280;38258;51.148;14.068;2023-01-31T07:51:08;98392.94;;;-0.75;100.00
52319;BME280;38258;51.148;14.068;2023-01-31T07:53:37;98446.63;;;-0.37;100.00
52319;BME280;38258;51.148;14.068;2023-01-31T07:56:09;98450.00;;;-0.41;100.00
52319;BME280;38258;51.148;14.068;2023-01-31T07:58:36;98435.47;;;-0.39;100.00
52319;BME280;38258;51.148;14.068;2023-01-31T08:01:03;98413.75;;;-0.58;100.00
52319;BME280;38258;51.148;14.068;2023-01-31T08:03:49;98456.28;;;-0.23;100.00
52319;BME280;38258;51.148;14.068;2023-01-31T08:06:16;98511.56;;;0.02;100.00
52319;BME280;38258;51.148;14.068;2023-01-31T08:08:43;98341.22;;;-0.95;100.00
52319;BME280;38258;51.148;14.068;2023-01-31T08:11:11;98546.28;;;0.29;100.00
52319;BME280;38258;51.148;14.068;2023-01-31T08:13:37;98541.09;;;0.27;100.00
52319;BME280;38258;51.148;14.068;2023-01-31T08:16:06;98498.84;;;0.13;100.00
52319;BME280;38258;51.148;14.068;2023-01-31T08:18:33;98434.00;;;-0.24;100.00
52319;BME280;38258;51.148;14.068;2023-01-31T08:21:01;98388.97;;;-0.54;100.00
52319;BME280;38258;51.148;14.068;2023-01-31T08:23:28;98443.63;;;-0.11;100.00
52319;BME280;38258;51.148;14.068;2023-01-31T08:25:59;98493.75;;;0.16;100.00
52319;BME280;38258;51.148;14.068;2023-01-31T08:28:26;98520.59;;;0.32;100.00
52319;BME280;38258;51.148;14.068;2023-01-31T08:30:53;98353.56;;;-0.73;100.00
52319;BME280;38258;51.148;14.068;2023-01-31T08:33:19;98417.72;;;-0.23;100.00
52319;BME280;38258;51.148;14.068;2023-01-31T08:35:46;98470.28;;;-0.04;100.00
52319;BME280;38258;51.148;14.068;2023-01-31T08:38:14;98530.16;;;0.41;100.00
52319;BME280;38258;51.148;14.068;2023-01-31T08:40:41;98468.03;;;0.15;100.00
52319;BME280;38258;51.148;14.068;2023-01-31T08:43:08;98441.94;;;-0.10;100.00
52319;BME280;38258;51.148;14.068;2023-01-31T08:45:35;98379.72;;;-0.43;100.00
52319;BME280;38258;51.148;14.068;2023-01-31T08:48:02;98497.31;;;0.26;100.00
52319;BME280;38258;51.148;14.068;2023-01-31T08:50:30;98447.16;;;-0.06;100.00
52319;BME280;38258;51.148;14.068;2023-01-31T08:52:59;98540.63;;;0.55;100.00
52319;BME280;38258;51.148;14.068;2023-01-31T08:55:27;98541.47;;;0.54;100.00
52319;BME280;38258;51.148;14.068;2023-01-31T08:57:57;98391.97;;;-0.26;100.00
52319;BME280;38258;51.148;14.068;2023-01-31T09:00:41;98405.66;;;-0.27;100.00
52319;BME280;38258;51.148;14.068;2023-01-31T09:03:13;98478.50;;;0.28;100.00
52319;BME280;38258;51.148;14.068;2023-01-31T09:05:41;98342.94;;;-0.40;100.00
52319;BME280;38258;51.148;14.068;2023-01-31T09:08:08;98427.72;;;0.15;100.00
52319;BME280;38258;51.148;14.068;2023-01-31T09:10:36;98413.13;;;0.14;100.00
52319;BME280;38258;51.148;14.068;2023-01-31T09:13:03;98529.97;;;0.90;100.00
52319;BME280;38258;51.148;14.068;2023-01-31T09:15:30;98509.34;;;0.92;100.00
52319;BME280;38258;51.148;14.068;2023-01-31T09:17:56;98509.47;;;1.01;100.00
52319;BME280;38258;51.148;14.068;2023-01-31T09:20:23;98419.66;;;0.53;100.00
52319;BME280;38258;51.148;14.068;2023-01-31T09:22:50;98322.06;;;-0.01;100.00
52319;BME280;38258;51.148;14.068;2023-01-31T09:25:16;98404.97;;;0.46;100.00
52319;BME280;38258;51.148;14.068;2023-01-31T09:27:45;98502.75;;;1.12;100.00
52319;BME280;38258;51.148;14.068;2023-01-31T09:30:12;98380.81;;;0.33;100.00
52319;BME280;38258;51.148;14.068;2023-01-31T09:32:40;98393.22;;;0.67;100.00
52319;BME280;38258;51.148;14.068;2023-01-31T09:35:08;98371.94;;;0.85;100.00
52319;BME280;38258;51.148;14.068;2023-01-31T09:37:35;98476.91;;;1.97;100.00
52319;BME280;38258;51.148;14.068;2023-01-31T09:40:02;98414.84;;;1.79;100.00
52319;BME280;38258;51.148;14.068;2023-01-31T09:42:32;98504.47;;;2.03;100.00
52319;BME280;38258;51.148;14.068;2023-01-31T09:45:05;98397.31;;;1.33;100.00
52319;BME280;38258;51.148;14.068;2023-01-31T09:47:35;98461.19;;;1.66;100.00
52319;BME280;38258;51.148;14.068;2023-01-31T09:50:06;98505.22;;;1.87;100.00
52319;BME280;38258;51.148;14.068;2023-01-31T09:52:38;98486.25;;;1.80;100.00
52319;BME280;38258;51.148;14.068;2023-01-31T09:55:05;98487.91;;;1.75;100.00
52319;BME280;38258;51.148;14.068;2023-01-31T09:57:39;98503.41;;;1.79;100.00
52319;BME280;38258;51.148;14.068;2023-01-31T10:00:18;98453.22;;;1.41;100.00
52319;BME280;38258;51.148;14.068;2023-01-31T10:03:11;98499.94;;;1.76;100.00
52319;BME280;38258;51.148;14.068;2023-01-31T10:05:49;98416.91;;;1.17;100.00
52319;BME280;38258;51.148;14.068;2023-01-31T10:08:23;98408.31;;;1.18;100.00
52319;BME280;38258;51.148;14.068;2023-01-31T10:11:00;98451.53;;;1.47;100.00
52319;BME280;38258;51.148;14.068;2023-01-31T10:13:31;98308.31;;;0.73;100.00
52319;BME280;38258;51.148;14.068;2023-01-31T10:16:13;98465.50;;;1.67;100.00
52319;BME280;38258;51.148;14.068;2023-01-31T10:18:45;98469.88;;;1.78;100.00
52319;BME280;38258;51.148;14.068;2023-01-31T10:21:17;98389.47;;;1.22;100.00
52319;BME280;38258;51.148;14.068;2023-01-31T10:23:50;98311.78;;;0.78;100.00
52319;BME280;38258;51.148;14.068;2023-01-31T10:26:22;98260.84;;;0.46;100.00
52319;BME280;38258;51.148;14.068;2023-01-31T10:28:56;98443.16;;;1.66;100.00
52319;BME280;38258;51.148;14.068;2023-01-31T10:31:29;98445.00;;;1.86;100.00
52319;BME280;38258;51.148;14.068;2023-01-31T10:34:02;98335.44;;;1.30;100.00
52319;BME280;38258;51.148;14.068;2023-01-31T10:36:32;98454.75;;;2.24;100.00
52319;BME280;38258;51.148;14.068;2023-01-31T10:39:03;98313.06;;;1.29;100.00
52319;BME280;38258;51.148;14.068;2023-01-31T10:41:40;98354.63;;;1.67;100.00
52319;BME280;38258;51.148;14.068;2023-01-31T10:44:17;98317.41;;;1.30;100.00
52319;BME280;38258;51.148;14.068;2023-01-31T10:46:47;98376.03;;;1.59;100.00
52319;BME280;38258;51.148;14.068;2023-01-31T10:49:14;98363.88;;;1.42;100.00
52319;BME280;38258;51.148;14.068;2023-01-31T10:51:54;98343.31;;;1.48;100.00
52319;BME280;38258;51.148;14.068;2023-01-31T10:54:37;98441.75;;;2.12;100.00
52319;BME280;38258;51.148;14.068;2023-01-31T10:57:06;98345.81;;;1.42;100.00
52319;BME280;38258;51.148;14.068;2023-01-31T10:59:35;98297.50;;;1.13;100.00
52319;BME280;38258;51.148;14.068;2023-01-31T11:02:04;98365.72;;;1.60;100.00
52319;BME280;38258;51.148;14.068;2023-01-31T11:04:40;98412.41;;;1.94;100.00
52319;BME280;38258;51.148;14.068;2023-01-31T11:07:08;98294.03;;;1.11;100.00
52319;BME280;38258;51.148;14.068;2023-01-31T11:09:37;98378.72;;;1.73;100.00
52319;BME280;38258;51.148;14.068;2023-01-31T11:12:06;98396.91;;;1.93;100.00
52319;BME280;38258;51.148;14.068;2023-01-31T11:14:33;98303.66;;;1.29;100.00
52319;BME280;38258;51.148;14.068;2023-01-31T11:17:05;98382.31;;;2.00;100.00
52319;BME280;38258;51.148;14.068;2023-01-31T11:19:35;98387.47;;;1.98;100.00
52319;BME280;38258;51.148;14.068;2023-01-31T11:22:03;98384.09;;;2.08;100.00
52319;BME280;38258;51.148;14.068;2023-01-31T11:24:32;98194.38;;;1.01;100.00
52319;BME280;38258;51.148;14.068;2023-01-31T11:27:02;98397.94;;;2.23;100.00
52319;BME280;38258;51.148;14.068;2023-01-31T11:29:31;98284.13;;;1.67;100.00
52319;BME280;38258;51.148;14.068;2023-01-31T11:32:02;98272.03;;;1.58;100.00
52319;BME280;38258;51.148;14.068;2023-01-31T11:34:31;98297.84;;;1.64;100.00
52319;BME280;38258;51.148;14.068;2023-01-31T11:37:09;98333.28;;;1.98;100.00
52319;BME280;38258;51.148;14.068;2023-01-31T11:39:38;98382.41;;;2.14;100.00
52319;BME280;38258;51.148;14.068;2023-01-31T11:42:10;98338.34;;;1.76;100.00
52319;BME280;38258;51.148;14.068;2023-01-31T11:44:56;98301.25;;;1.57;100.00
52319;BME280;38258;51.148;14.068;2023-01-31T11:47:31;98278.00;;;1.48;100.00
52319;BME280;38258;51.148;14.068;2023-01-31T11:50:01;98330.72;;;1.98;100.00
52319;BME280;38258;51.148;14.068;2023-01-31T11:52:30;98211.72;;;1.28;100.00
52319;BME280;38258;51.148;14.068;2023-01-31T11:54:59;98321.34;;;2.14;100.00
52319;BME280;38258;51.148;14.068;2023-01-31T11:57:30;98120.50;;;0.93;100.00
52319;BME280;38258;51.148;14.068;2023-01-31T11:59:59;98319.72;;;2.38;100.00
52319;BME280;38258;51.148;14.068;2023-01-31T12:02:32;98216.25;;;1.76;100.00
52319;BME280;38258;51.148;14.068;2023-01-31T12:05:07;98211.16;;;1.85;100.00
52319;BME280;38258;51.148;14.068;2023-01-31T12:07:41;98305.97;;;2.53;100.00
52319;BME280;38258;51.148;14.068;2023-01-31T12:10:26;98236.19;;;2.14;100.00
52319;BME280;38258;51.148;14.068;2023-01-31T12:12:59;98259.50;;;2.56;100.00
52319;BME280;38258;51.148;14.068;2023-01-31T12:15:27;98202.66;;;2.33;100.00
52319;BME280;38258;51.148;14.068;2023-01-31T12:17:57;98176.84;;;2.19;100.00
52319;BME280;38258;51.148;14.068;2023-01-31T12:20:38;98175.97;;;2.09;100.00
52319;BME280;38258;51.148;14.068;2023-01-31T12:23:18;98163.88;;;1.97;100.00
52319;BME280;38258;51.148;14.068;2023-01-31T12:25:55;98197.53;;;2.39;100.00
52319;BME280;38258;51.148;14.068;2023-01-31T12:28:42;98114.88;;;1.91;100.00
52319;BME280;38258;51.148;14.068;2023-01-31T12:31:39;98281.06;;;2.91;100.00
52319;BME280;38258;51.148;14.068;2023-01-31T12:34:25;98192.38;;;2.47;100.00
52319;BME280;38258;51.148;14.068;2023-01-31T12:37:20;98263.84;;;2.97;100.00
52319;BME280;38258;51.148;14.068;2023-01-31T12:39:59;98163.97;;;2.40;100.00
52319;BME280;38258;51.148;14.068;2023-01-31T12:42:52;98171.72;;;2.42;100.00
52319;BME280;38258;51.148;14.068;2023-01-31T12:45:43;98244.06;;;2.86;100.00
52319;BME280;38258;51.148;14.068;2023-01-31T12:51:19;98227.69;;;2.93;100.00
52319;BME280;38258;51.148;14.068;2023-01-31T12:54:02;98033.19;;;1.83;100.00
52319;BME280;38258;51.148;14.068;2023-01-31T12:56:46;98091.69;;;2.06;100.00
52319;BME280;38258;51.148;14.068;2023-01-31T12:59:25;98128.69;;;2.44;100.00
52319;BME280;38258;51.148;14.068;2023-01-31T13:01:58;98086.50;;;2.08;100.00
52319;BME280;38258;51.148;14.068;2023-01-31T13:04:37;97994.47;;;1.60;100.00
52319;BME280;38258;51.148;14.068;2023-01-31T13:07:08;98112.31;;;1.98;100.00
52319;BME280;38258;51.148;14.068;2023-01-31T13:09:40;98083.91;;;1.92;100.00
52319;BME280;38258;51.148;14.068;2023-01-31T13:12:11;98099.38;;;1.80;100.00
52319;BME280;38258;51.148;14.068;2023-01-31T13:14:42;98231.13;;;2.51;100.00